createdAt,value
2023-03-03T00:00:15.216Z,34.40
2023-03-03T00:01:15.197Z,34.70
2023-03-03T00:02:15.251Z,33.90
2023-03-03T00:03:15.228Z,32.90
2023-03-03T00:04:15.140Z,32.90
2023-03-03T00:05:15.118Z,35.30
2023-03-03T00:06:15.105Z,34.50
2023-03-03T00:07:15.097Z,33.60
2023-03-03T00:08:15.129Z,34.90
2023-03-03T00:09:15.072Z,33.00
2023-03-03T00:10:15.050Z,32.80
2023-03-03T00:11:15.056Z,33.30
2023-03-03T00:12:15.029Z,32.70
2023-03-03T00:13:15.047Z,33.80
2023-03-03T00:14:15.010Z,34.30
2023-03-03T00:15:15.031Z,35.20
2023-03-03T00:16:15.078Z,33.00
2023-03-03T00:17:14.986Z,31.80
2023-03-03T00:18:14.998Z,32.80
2023-03-03T00:19:14.980Z,35.00
2023-03-03T00:20:14.981Z,34.50
2023-03-03T00:21:14.940Z,33.70
2023-03-03T00:22:14.926Z,32.90
2023-03-03T00:23:14.947Z,34.70
2023-03-03T00:24:14.956Z,34.40
2023-03-03T00:25:14.910Z,32.90
2023-03-03T00:26:14.878Z,33.20
2023-03-03T00:27:14.891Z,34.00
2023-03-03T00:28:14.884Z,33.30
2023-03-03T00:29:14.857Z,33.20
2023-03-03T00:30:14.853Z,33.10
2023-03-03T00:31:14.933Z,33.30
2023-03-03T00:32:14.865Z,32.00
2023-03-03T00:33:14.838Z,32.60
2023-03-03T00:34:14.794Z,31.60
2023-03-03T00:35:14.783Z,32.00
2023-03-03T00:36:14.830Z,33.40
2023-03-03T00:37:14.767Z,34.90
2023-03-03T00:38:14.800Z,33.20
2023-03-03T00:39:14.750Z,33.50
2023-03-03T00:40:14.759Z,32.50
2023-03-03T00:41:14.735Z,33.90
2023-03-03T00:42:14.709Z,34.20
2023-03-03T00:43:14.749Z,32.80
2023-03-03T00:44:14.682Z,33.50
2023-03-03T00:45:14.684Z,35.10
2023-03-03T00:46:14.711Z,34.40
2023-03-03T00:47:14.656Z,33.20
2023-03-03T00:48:14.681Z,33.10
2023-03-03T00:49:14.633Z,33.30
2023-03-03T00:50:14.618Z,33.50
2023-03-03T00:51:14.644Z,32.40
2023-03-03T00:52:14.596Z,32.30
2023-03-03T00:53:14.664Z,33.30
2023-03-03T00:54:14.582Z,34.00
2023-03-03T00:55:14.569Z,32.10
2023-03-03T00:56:14.553Z,29.50
2023-03-03T00:57:14.559Z,32.30
2023-03-03T00:58:14.554Z,33.10
2023-03-03T00:59:14.539Z,31.00
2023-03-03T01:00:14.515Z,34.30
2023-03-03T01:01:14.532Z,31.70
2023-03-03T01:02:14.524Z,32.90
2023-03-03T01:03:14.529Z,33.60
2023-03-03T01:04:14.461Z,32.60
2023-03-03T01:05:14.472Z,30.50
2023-03-03T01:06:14.444Z,32.90
2023-03-03T01:07:14.438Z,32.90
2023-03-03T01:08:14.446Z,31.90
2023-03-03T01:09:14.417Z,32.20
2023-03-03T01:10:14.392Z,32.20
2023-03-03T01:11:14.385Z,32.00
2023-03-03T01:12:14.391Z,30.70
2023-03-03T01:13:14.393Z,32.40
2023-03-03T01:14:14.387Z,32.60
2023-03-03T01:15:14.343Z,31.90
2023-03-03T01:16:14.413Z,31.50
2023-03-03T01:17:14.321Z,32.20
2023-03-03T01:18:14.362Z,31.90
2023-03-03T01:19:14.301Z,32.00
2023-03-03T01:20:14.298Z,32.50
2023-03-03T01:21:14.284Z,32.80
2023-03-03T01:22:14.267Z,31.60
2023-03-03T01:23:14.279Z,33.00
2023-03-03T01:24:14.236Z,33.40
2023-03-03T01:25:14.246Z,32.10
2023-03-03T01:26:14.236Z,34.40
2023-03-03T01:27:14.224Z,33.50
2023-03-03T01:28:14.256Z,32.10
2023-03-03T01:29:14.192Z,33.70
2023-03-03T01:30:14.189Z,34.20
2023-03-03T01:31:14.217Z,31.50
2023-03-03T01:32:14.189Z,32.90
2023-03-03T01:33:14.176Z,32.70
2023-03-03T01:34:14.128Z,32.20
2023-03-03T01:35:14.125Z,32.90
2023-03-03T01:36:14.108Z,33.20
2023-03-03T01:37:14.095Z,35.50
2023-03-03T01:38:14.112Z,33.20
2023-03-03T01:39:14.097Z,32.90
2023-03-03T01:40:14.064Z,33.50
2023-03-03T01:41:14.050Z,33.80
2023-03-03T01:42:14.046Z,34.00
2023-03-03T01:43:14.075Z,33.60
2023-03-03T01:44:14.030Z,35.70
2023-03-03T01:45:14.076Z,34.80
2023-03-03T01:46:14.018Z,36.70
2023-03-03T01:47:13.989Z,36.60
2023-03-03T01:48:13.997Z,37.50
2023-03-03T01:49:14.001Z,36.60
2023-03-03T01:50:13.951Z,36.10
2023-03-03T01:51:13.936Z,35.40
2023-03-03T01:52:13.923Z,35.30
2023-03-03T01:53:13.940Z,36.50
2023-03-03T01:54:13.896Z,37.10
2023-03-03T01:55:13.907Z,35.80
2023-03-03T01:56:13.880Z,35.10
2023-03-03T01:57:13.876Z,36.10
2023-03-03T01:58:13.905Z,36.10
2023-03-03T01:59:13.857Z,36.80
2023-03-03T02:00:13.841Z,36.70
2023-03-03T02:01:13.830Z,35.60
2023-03-03T02:02:13.819Z,36.00
2023-03-03T02:03:13.830Z,37.30
2023-03-03T02:04:13.826Z,36.00
2023-03-03T02:05:13.785Z,34.40
2023-03-03T02:06:13.784Z,34.80
2023-03-03T02:07:13.786Z,35.20
2023-03-03T02:08:13.772Z,34.50
2023-03-03T02:09:13.744Z,34.30
2023-03-03T02:10:13.736Z,35.10
2023-03-03T02:11:13.714Z,34.80
2023-03-03T02:12:13.740Z,34.80
2023-03-03T02:13:13.722Z,35.00
2023-03-03T02:14:13.704Z,35.00
2023-03-03T02:15:13.682Z,33.60
2023-03-03T02:16:13.719Z,34.20
2023-03-03T02:17:13.655Z,32.20
2023-03-03T02:18:13.678Z,33.00
2023-03-03T02:19:13.693Z,34.90
2023-03-03T02:20:13.620Z,33.60
2023-03-03T02:21:13.621Z,31.60
2023-03-03T02:22:13.605Z,33.10
2023-03-03T02:23:13.637Z,30.10
2023-03-03T02:24:13.574Z,30.50
2023-03-03T02:25:13.574Z,29.60
2023-03-03T02:26:13.560Z,31.10
2023-03-03T02:27:13.552Z,33.20
2023-03-03T02:28:13.550Z,32.00
2023-03-03T02:29:13.531Z,31.70
2023-03-03T02:30:13.510Z,32.80
2023-03-03T02:31:13.703Z,31.80
2023-03-03T02:32:13.517Z,32.40
2023-03-03T02:33:13.508Z,33.00
2023-03-03T02:34:13.478Z,31.90
2023-03-03T02:35:13.462Z,32.70
2023-03-03T02:36:13.441Z,33.00
2023-03-03T02:37:13.466Z,32.40
2023-03-03T02:38:13.419Z,33.60
2023-03-03T02:39:13.446Z,32.50
2023-03-03T02:40:13.405Z,34.60
2023-03-03T02:41:13.404Z,35.60
2023-03-03T02:42:13.373Z,34.40
2023-03-03T02:43:13.384Z,34.60
2023-03-03T02:44:13.380Z,34.80
2023-03-03T02:45:13.354Z,34.20
2023-03-03T02:46:13.334Z,35.40
2023-03-03T02:47:13.322Z,33.70
2023-03-03T02:48:13.307Z,33.40
2023-03-03T02:49:13.319Z,32.00
2023-03-03T02:50:13.305Z,35.50
2023-03-03T02:51:13.274Z,33.20
2023-03-03T02:52:13.254Z,34.40
2023-03-03T02:53:13.256Z,34.80
2023-03-03T02:54:13.309Z,33.80
2023-03-03T02:55:13.245Z,34.50
2023-03-03T02:56:13.219Z,35.10
2023-03-03T02:57:13.209Z,34.10
2023-03-03T02:58:13.187Z,32.90
2023-03-03T02:59:13.210Z,35.20
2023-03-03T03:00:13.167Z,36.50
2023-03-03T03:01:13.216Z,35.00
2023-03-03T03:02:13.142Z,35.60
2023-03-03T03:03:13.137Z,34.30
2023-03-03T03:04:13.193Z,35.70
2023-03-03T03:05:13.121Z,34.30
2023-03-03T03:06:13.107Z,35.20
2023-03-03T03:07:13.107Z,35.70
2023-03-03T03:08:13.098Z,34.20
2023-03-03T03:09:13.122Z,32.60
2023-03-03T03:10:13.073Z,32.50
2023-03-03T03:11:13.050Z,33.50
2023-03-03T03:12:13.054Z,33.90
2023-03-03T03:13:13.025Z,33.80
2023-03-03T03:14:13.033Z,34.20
2023-03-03T03:15:13.013Z,34.50
2023-03-03T03:16:13.027Z,35.30
2023-03-03T03:17:12.977Z,33.70
2023-03-03T03:18:13.008Z,34.10
2023-03-03T03:19:12.982Z,32.20
2023-03-03T03:20:12.961Z,33.20
2023-03-03T03:21:12.947Z,31.20
2023-03-03T03:22:12.969Z,31.70
2023-03-03T03:23:12.913Z,32.40
2023-03-03T03:24:12.926Z,32.80
2023-03-03T03:25:12.895Z,32.30
2023-03-03T03:26:12.880Z,34.10
2023-03-03T03:27:12.907Z,29.20
2023-03-03T03:28:12.856Z,31.40
2023-03-03T03:29:12.905Z,30.80
2023-03-03T03:30:12.832Z,32.80
2023-03-03T03:31:12.889Z,31.90
2023-03-03T03:32:12.927Z,31.10
2023-03-03T03:33:12.819Z,31.70
2023-03-03T03:34:12.808Z,32.70
2023-03-03T03:35:12.780Z,29.80
2023-03-03T03:36:12.768Z,32.20
2023-03-03T03:37:12.758Z,32.10
2023-03-03T03:38:12.749Z,30.00
2023-03-03T03:39:12.759Z,31.60
2023-03-03T03:40:12.725Z,31.10
2023-03-03T03:41:12.713Z,32.70
2023-03-03T03:42:12.702Z,31.00
2023-03-03T03:43:12.687Z,30.70
2023-03-03T03:44:12.718Z,28.30
2023-03-03T03:45:12.695Z,29.40
2023-03-03T03:46:12.721Z,31.10
2023-03-03T03:47:12.633Z,30.10
2023-03-03T03:48:12.677Z,30.60
2023-03-03T03:49:12.649Z,30.50
2023-03-03T03:50:12.606Z,29.70
2023-03-03T03:51:12.614Z,29.60
2023-03-03T03:52:12.593Z,29.30
2023-03-03T03:53:12.577Z,30.20
2023-03-03T03:54:12.622Z,30.20
2023-03-03T03:55:12.556Z,29.30
2023-03-03T03:56:12.540Z,29.60
2023-03-03T03:57:12.533Z,31.20
2023-03-03T03:58:12.554Z,30.10
2023-03-03T03:59:12.533Z,31.60
2023-03-03T04:00:12.512Z,30.10
2023-03-03T04:01:12.483Z,31.60
2023-03-03T04:02:12.562Z,30.30
2023-03-03T04:03:12.572Z,29.80
2023-03-03T04:04:12.479Z,30.70
2023-03-03T04:05:12.449Z,30.90
2023-03-03T04:06:12.432Z,30.20
2023-03-03T04:07:12.420Z,29.90
2023-03-03T04:08:12.412Z,29.20
2023-03-03T04:09:12.441Z,29.00
2023-03-03T04:10:12.391Z,29.00
2023-03-03T04:11:12.373Z,28.90
2023-03-03T04:12:12.374Z,28.30
2023-03-03T04:13:12.352Z,30.00
2023-03-03T04:14:12.385Z,29.80
2023-03-03T04:15:12.342Z,29.90
2023-03-03T04:16:12.411Z,28.00
2023-03-03T04:17:12.314Z,28.60
2023-03-03T04:18:12.305Z,29.80
2023-03-03T04:19:12.327Z,29.60
2023-03-03T04:20:12.278Z,29.00
2023-03-03T04:21:12.268Z,30.00
2023-03-03T04:22:12.260Z,29.20
2023-03-03T04:23:12.273Z,30.20
2023-03-03T04:24:12.264Z,28.60
2023-03-03T04:25:12.224Z,30.40
2023-03-03T04:26:12.209Z,30.20
2023-03-03T04:27:12.205Z,31.90
2023-03-03T04:28:12.195Z,30.10
2023-03-03T04:29:12.216Z,28.10
2023-03-03T04:30:12.189Z,28.90
2023-03-03T04:31:12.219Z,30.70
2023-03-03T04:32:12.162Z,30.50
2023-03-03T04:33:12.162Z,31.60
2023-03-03T04:34:12.145Z,31.40
2023-03-03T04:35:12.125Z,29.10
2023-03-03T04:36:12.111Z,29.60
2023-03-03T04:37:12.109Z,30.60
2023-03-03T04:38:12.079Z,30.70
2023-03-03T04:39:12.095Z,29.70
2023-03-03T04:40:12.058Z,30.60
2023-03-03T04:41:12.064Z,28.80
2023-03-03T04:42:12.033Z,28.60
2023-03-03T04:43:12.062Z,29.40
2023-03-03T04:44:12.034Z,28.90
2023-03-03T04:45:12.017Z,29.50
2023-03-03T04:46:12.028Z,28.40
2023-03-03T04:47:11.988Z,28.50
2023-03-03T04:48:11.971Z,28.80
2023-03-03T04:49:12.620Z,29.10
2023-03-03T04:50:11.942Z,27.90
2023-03-03T04:51:11.941Z,29.40
2023-03-03T04:52:11.919Z,29.20
2023-03-03T04:53:11.916Z,30.00
2023-03-03T04:54:11.943Z,27.40
2023-03-03T04:55:11.897Z,26.50
2023-03-03T04:56:11.910Z,28.00
2023-03-03T04:57:11.882Z,29.60
2023-03-03T04:58:11.866Z,29.40
2023-03-03T04:59:11.877Z,29.30
2023-03-03T05:00:11.857Z,28.50
2023-03-03T05:01:11.869Z,28.80
2023-03-03T05:02:11.811Z,28.70
2023-03-03T05:03:11.821Z,28.10
2023-03-03T05:04:11.809Z,28.60
2023-03-03T05:05:11.786Z,28.50
2023-03-03T05:06:11.765Z,28.80
2023-03-03T05:07:11.761Z,26.90
2023-03-03T05:08:11.734Z,30.20
2023-03-03T05:09:11.759Z,29.90
2023-03-03T05:10:11.757Z,30.20
2023-03-03T05:11:11.706Z,31.20
2023-03-03T05:12:11.693Z,30.70
2023-03-03T05:13:11.689Z,30.10
2023-03-03T05:14:11.699Z,30.70
2023-03-03T05:15:11.689Z,28.20
2023-03-03T05:16:11.677Z,27.70
2023-03-03T05:17:11.638Z,26.60
2023-03-03T05:18:11.631Z,26.70
2023-03-03T05:19:11.699Z,27.40
2023-03-03T05:20:11.612Z,28.30
2023-03-03T05:21:11.595Z,27.10
2023-03-03T05:22:11.585Z,25.80
2023-03-03T05:23:11.575Z,26.10
2023-03-03T05:24:11.585Z,25.10
2023-03-03T05:25:11.583Z,24.80
2023-03-03T05:26:11.550Z,25.30
2023-03-03T05:27:11.536Z,24.90
2023-03-03T05:28:11.525Z,22.40
2023-03-03T05:29:11.563Z,24.80
2023-03-03T05:30:11.492Z,22.70
2023-03-03T05:31:11.554Z,23.40
2023-03-03T05:32:11.527Z,23.70
2023-03-03T05:33:11.498Z,22.70
2023-03-03T05:34:11.473Z,24.00
2023-03-03T05:35:11.442Z,24.60
2023-03-03T05:36:11.424Z,23.40
2023-03-03T05:37:11.424Z,22.50
2023-03-03T05:38:11.406Z,22.50
2023-03-03T05:39:11.429Z,21.80
2023-03-03T05:40:11.391Z,21.40
2023-03-03T05:41:11.376Z,22.50
2023-03-03T05:42:11.360Z,21.20
2023-03-03T05:43:11.357Z,21.60
2023-03-03T05:44:11.381Z,21.00
2023-03-03T05:45:11.328Z,20.10
2023-03-03T05:46:11.352Z,20.60
2023-03-03T05:47:11.317Z,20.90
2023-03-03T05:48:11.298Z,20.50
2023-03-03T05:49:11.305Z,20.20
2023-03-03T05:50:11.274Z,20.90
2023-03-03T05:51:11.261Z,21.50
2023-03-03T05:52:11.251Z,21.40
2023-03-03T05:53:11.261Z,20.90
2023-03-03T05:54:11.282Z,19.90
2023-03-03T05:55:11.218Z,20.50
2023-03-03T05:56:11.202Z,19.50
2023-03-03T05:57:11.264Z,22.00
2023-03-03T05:58:11.255Z,21.20
2023-03-03T05:59:11.191Z,21.00
2023-03-03T06:00:11.161Z,22.20
2023-03-03T06:01:11.148Z,21.10
2023-03-03T06:02:11.201Z,19.70
2023-03-03T06:03:11.129Z,21.00
2023-03-03T06:04:11.140Z,19.80
2023-03-03T06:05:11.113Z,19.80
2023-03-03T06:06:11.093Z,20.70
2023-03-03T06:07:11.088Z,20.90
2023-03-03T06:08:11.077Z,21.20
2023-03-03T06:09:11.088Z,20.20
2023-03-03T06:10:11.071Z,20.50
2023-03-03T06:11:11.040Z,21.00
2023-03-03T06:12:11.036Z,20.40
2023-03-03T06:13:11.024Z,20.90
2023-03-03T06:14:11.041Z,20.00
2023-03-03T06:15:11.009Z,21.40
2023-03-03T06:16:11.048Z,21.90
2023-03-03T06:17:10.986Z,21.10
2023-03-03T06:18:10.958Z,21.20
2023-03-03T06:19:10.982Z,20.90
2023-03-03T06:20:10.937Z,22.10
2023-03-03T06:21:10.930Z,22.40
2023-03-03T06:22:10.953Z,23.10
2023-03-03T06:23:10.928Z,22.30
2023-03-03T06:24:10.919Z,23.00
2023-03-03T06:25:10.926Z,22.70
2023-03-03T06:26:10.874Z,23.80
2023-03-03T06:27:10.892Z,22.80
2023-03-03T06:28:10.850Z,22.80
2023-03-03T06:29:10.866Z,22.80
2023-03-03T06:30:10.832Z,22.90
2023-03-03T06:31:10.832Z,22.30
2023-03-03T06:32:10.927Z,21.90
2023-03-03T06:33:10.802Z,22.70
2023-03-03T06:34:10.803Z,23.30
2023-03-03T06:35:10.802Z,22.80
2023-03-03T06:36:10.770Z,22.30
2023-03-03T06:37:10.759Z,23.90
2023-03-03T06:38:10.742Z,22.40
2023-03-03T06:39:10.766Z,22.80
2023-03-03T06:40:10.777Z,21.90
2023-03-03T06:41:10.713Z,22.50
2023-03-03T06:42:10.699Z,21.70
2023-03-03T06:43:10.689Z,22.90
2023-03-03T06:44:10.696Z,24.20
2023-03-03T06:45:10.664Z,24.00
2023-03-03T06:46:10.783Z,24.10
2023-03-03T06:47:10.644Z,23.80
2023-03-03T06:48:10.635Z,24.30
2023-03-03T06:49:10.646Z,25.60
2023-03-03T06:50:10.604Z,23.60
2023-03-03T06:51:10.613Z,23.20
2023-03-03T06:52:10.579Z,24.10
2023-03-03T06:53:10.572Z,23.00
2023-03-03T06:54:10.578Z,23.50
2023-03-03T06:55:10.552Z,23.00
2023-03-03T06:56:10.545Z,23.80
2023-03-03T06:57:10.528Z,22.90
2023-03-03T06:58:10.547Z,24.40
2023-03-03T06:59:10.523Z,24.30
2023-03-03T07:00:10.501Z,23.70
2023-03-03T07:01:10.508Z,24.10
2023-03-03T07:02:10.475Z,25.40
2023-03-03T07:03:10.464Z,23.30
2023-03-03T07:04:10.509Z,23.10
2023-03-03T07:05:10.494Z,22.50
2023-03-03T07:06:10.430Z,22.50
2023-03-03T07:07:10.431Z,22.20
2023-03-03T07:08:10.414Z,21.70
2023-03-03T07:09:10.452Z,22.50
2023-03-03T07:10:10.392Z,21.70
2023-03-03T07:11:10.387Z,21.00
2023-03-03T07:12:10.380Z,20.60
2023-03-03T07:13:10.358Z,22.10
2023-03-03T07:14:10.369Z,22.20
2023-03-03T07:15:10.344Z,21.30
2023-03-03T07:16:10.396Z,21.80
2023-03-03T07:17:10.320Z,22.80
2023-03-03T07:18:10.312Z,22.90
2023-03-03T07:19:10.366Z,22.20
2023-03-03T07:20:10.293Z,23.60
2023-03-03T07:21:10.307Z,24.00
2023-03-03T07:22:10.319Z,22.70
2023-03-03T07:23:10.264Z,22.10
2023-03-03T07:24:10.262Z,22.40
2023-03-03T07:25:10.265Z,21.90
2023-03-03T07:26:10.215Z,24.10
2023-03-03T07:27:10.213Z,23.80
2023-03-03T07:28:10.239Z,23.10
2023-03-03T07:29:10.248Z,22.10
2023-03-03T07:30:10.193Z,20.90
2023-03-03T07:31:10.257Z,21.50
2023-03-03T07:32:10.171Z,21.40
2023-03-03T07:33:10.172Z,23.00
2023-03-03T07:34:10.149Z,22.30
2023-03-03T07:35:10.128Z,21.50
2023-03-03T07:36:10.120Z,21.80
2023-03-03T07:37:10.100Z,21.40
2023-03-03T07:38:10.101Z,20.60
2023-03-03T07:39:10.149Z,20.00
2023-03-03T07:40:10.057Z,21.20
2023-03-03T07:41:10.059Z,20.20
2023-03-03T07:42:10.060Z,20.60
2023-03-03T07:43:10.094Z,21.00
2023-03-03T07:44:10.043Z,20.80
2023-03-03T07:45:10.077Z,21.70
2023-03-03T07:46:10.098Z,21.00
2023-03-03T07:47:10.000Z,22.20
2023-03-03T07:48:10.002Z,20.60
2023-03-03T07:49:09.989Z,20.30
2023-03-03T07:50:09.953Z,20.40
2023-03-03T07:51:09.964Z,20.60
2023-03-03T07:52:09.964Z,19.50
2023-03-03T07:53:09.922Z,19.40
2023-03-03T07:54:09.936Z,19.60
2023-03-03T07:55:09.900Z,19.40
2023-03-03T07:56:09.896Z,19.90
2023-03-03T07:57:09.889Z,19.30
2023-03-03T07:58:09.865Z,20.00
2023-03-03T07:59:09.895Z,19.30
2023-03-03T08:00:09.840Z,17.50
2023-03-03T08:01:09.834Z,19.00
2023-03-03T08:02:09.839Z,19.70
2023-03-03T08:03:09.818Z,19.30
2023-03-03T08:04:10.017Z,19.20
2023-03-03T08:05:09.944Z,19.90
2023-03-03T08:06:09.782Z,19.70
2023-03-03T08:07:09.769Z,18.80
2023-03-03T08:08:09.766Z,18.70
2023-03-03T08:09:09.772Z,18.80
2023-03-03T08:10:09.776Z,18.80
2023-03-03T08:11:09.738Z,19.40
2023-03-03T08:12:09.771Z,19.60
2023-03-03T08:13:09.694Z,19.20
2023-03-03T08:14:09.702Z,19.80
2023-03-03T08:15:09.684Z,19.20
2023-03-03T08:16:09.748Z,20.00
2023-03-03T08:17:09.653Z,19.70
2023-03-03T08:18:09.649Z,19.60
2023-03-03T08:19:09.646Z,20.10
2023-03-03T08:20:09.615Z,20.20
2023-03-03T08:21:09.593Z,20.00
2023-03-03T08:22:09.584Z,19.10
2023-03-03T08:23:09.593Z,20.30
2023-03-03T08:24:09.579Z,19.40
2023-03-03T08:25:09.549Z,20.70
2023-03-03T08:26:09.529Z,19.60
2023-03-03T08:27:09.553Z,19.10
2023-03-03T08:28:09.510Z,19.80
2023-03-03T08:29:09.545Z,18.60
2023-03-03T08:30:09.489Z,19.40
2023-03-03T08:31:22.281Z,18.50
2023-03-03T08:32:09.569Z,18.70
2023-03-03T08:33:09.462Z,20.10
2023-03-03T08:34:09.490Z,18.70
2023-03-03T08:35:09.434Z,19.30
2023-03-03T08:36:09.425Z,19.10
2023-03-03T08:37:09.411Z,19.50
2023-03-03T08:38:09.438Z,19.10
2023-03-03T08:39:09.431Z,17.90
2023-03-03T08:40:09.377Z,18.10
2023-03-03T08:41:09.360Z,18.10
2023-03-03T08:42:09.397Z,17.60
2023-03-03T08:43:09.353Z,18.10
2023-03-03T08:44:09.414Z,17.70
2023-03-03T08:45:09.333Z,18.10
2023-03-03T08:46:09.332Z,18.20
2023-03-03T08:47:09.320Z,18.60
2023-03-03T08:48:09.291Z,17.80
2023-03-03T08:49:09.313Z,17.80
2023-03-03T08:50:09.286Z,18.10
2023-03-03T08:51:09.284Z,17.90
2023-03-03T08:52:09.247Z,17.90
2023-03-03T08:53:09.239Z,17.80
2023-03-03T08:54:09.249Z,17.00
2023-03-03T08:55:09.221Z,17.00
2023-03-03T08:56:09.202Z,18.50
2023-03-03T08:57:09.188Z,16.60
2023-03-03T08:58:09.200Z,17.30
2023-03-03T08:59:09.197Z,17.30
2023-03-03T09:00:09.187Z,17.10
2023-03-03T09:01:09.141Z,15.60
2023-03-03T09:02:09.278Z,16.80
2023-03-03T09:03:09.122Z,17.20
2023-03-03T09:04:09.215Z,16.50
2023-03-03T09:05:09.091Z,18.30
2023-03-03T09:06:09.106Z,17.60
2023-03-03T09:07:09.092Z,18.40
2023-03-03T09:08:09.092Z,17.40
2023-03-03T09:09:09.071Z,17.50
2023-03-03T09:10:09.046Z,18.60
2023-03-03T09:11:09.031Z,18.10
2023-03-03T09:12:09.037Z,17.60
2023-03-03T09:13:09.509Z,16.40
2023-03-03T09:14:09.039Z,17.10
2023-03-03T09:15:08.980Z,17.50
2023-03-03T09:16:09.021Z,17.40
2023-03-03T09:17:08.992Z,18.20
2023-03-03T09:18:09.009Z,17.90
2023-03-03T09:19:08.956Z,18.20
2023-03-03T09:20:08.937Z,17.90
2023-03-03T09:21:08.924Z,17.50
2023-03-03T09:22:08.917Z,17.30
2023-03-03T09:23:08.897Z,17.40
2023-03-03T09:24:08.936Z,17.80
2023-03-03T09:25:08.867Z,17.30
2023-03-03T09:26:08.860Z,17.70
2023-03-03T09:27:08.879Z,17.00
2023-03-03T09:28:08.848Z,17.10
2023-03-03T09:29:08.843Z,17.10
2023-03-03T09:30:08.826Z,16.80
2023-03-03T09:31:08.862Z,16.80
2023-03-03T09:32:08.902Z,16.50
2023-03-03T09:33:08.779Z,16.50
2023-03-03T09:34:08.819Z,16.90
2023-03-03T09:35:08.756Z,16.10
2023-03-03T09:36:08.758Z,17.40
2023-03-03T09:37:11.503Z,16.60
2023-03-03T09:38:08.778Z,17.60
2023-03-03T09:39:08.754Z,17.10
2023-03-03T09:40:08.706Z,17.10
2023-03-03T09:41:08.690Z,16.60
2023-03-03T09:42:08.684Z,17.00
2023-03-03T09:43:08.692Z,16.70
2023-03-03T09:44:08.685Z,16.70
2023-03-03T09:45:08.673Z,16.90
2023-03-03T09:46:08.638Z,17.20
2023-03-03T09:47:08.620Z,16.80
2023-03-03T09:48:08.653Z,16.30
2023-03-03T09:49:08.650Z,17.00
2023-03-03T09:50:08.611Z,17.20
2023-03-03T09:51:08.576Z,17.10
2023-03-03T09:52:08.573Z,19.40
2023-03-03T09:53:08.560Z,16.00
2023-03-03T09:54:08.569Z,16.40
2023-03-03T09:55:08.535Z,16.20
2023-03-03T09:56:08.528Z,16.20
2023-03-03T09:57:08.544Z,15.80
2023-03-03T09:58:11.145Z,15.50
2023-03-03T09:59:08.530Z,16.80
2023-03-03T10:00:08.479Z,16.80
2023-03-03T10:01:08.503Z,16.00
2023-03-03T10:02:08.465Z,16.10
2023-03-03T10:03:08.470Z,16.10
2023-03-03T10:04:08.516Z,15.20
2023-03-03T10:05:08.424Z,15.60
2023-03-03T10:06:08.417Z,16.00
2023-03-03T10:07:08.401Z,16.00
2023-03-03T10:08:08.412Z,15.90
2023-03-03T10:09:08.402Z,15.60
2023-03-03T10:10:08.373Z,15.60
2023-03-03T10:11:08.373Z,16.00
2023-03-03T10:12:08.341Z,15.40
2023-03-03T10:13:08.347Z,16.20
2023-03-03T10:14:08.454Z,15.30
2023-03-03T10:15:08.319Z,16.00
2023-03-03T10:16:08.354Z,16.20
2023-03-03T10:17:08.285Z,17.10
2023-03-03T10:18:08.289Z,17.50
2023-03-03T10:19:08.289Z,17.30
2023-03-03T10:20:08.284Z,17.10
2023-03-03T10:21:08.242Z,17.20
2023-03-03T10:22:08.243Z,17.80
2023-03-03T10:23:08.238Z,17.80
2023-03-03T10:24:08.229Z,18.60
2023-03-03T10:25:08.213Z,17.90
2023-03-03T10:26:08.200Z,17.90
2023-03-03T10:27:14.730Z,18.00
2023-03-03T10:28:08.189Z,17.60
2023-03-03T10:29:08.165Z,18.00
2023-03-03T10:30:08.148Z,17.50
2023-03-03T10:31:12.116Z,17.50
2023-03-03T10:32:08.242Z,18.30
2023-03-03T10:33:08.298Z,17.70
2023-03-03T10:34:08.115Z,17.80
2023-03-03T10:35:08.080Z,17.80
2023-03-03T10:36:08.124Z,18.20
2023-03-03T10:37:08.058Z,18.00
2023-03-03T10:38:08.054Z,17.30
2023-03-03T10:39:08.070Z,17.60
2023-03-03T10:40:08.035Z,16.90
2023-03-03T10:41:08.013Z,16.40
2023-03-03T10:42:08.029Z,16.60
2023-03-03T10:43:07.995Z,17.30
2023-03-03T10:44:08.033Z,17.20
2023-03-03T10:45:07.993Z,16.90
2023-03-03T10:46:07.985Z,18.00
2023-03-03T10:47:07.945Z,17.40
2023-03-03T10:48:07.941Z,17.70
2023-03-03T10:49:07.955Z,18.60
2023-03-03T10:50:07.915Z,18.00
2023-03-03T10:51:07.906Z,18.10
2023-03-03T10:52:07.892Z,18.20
2023-03-03T10:53:07.900Z,18.20
2023-03-03T10:54:07.907Z,17.30
2023-03-03T10:55:07.860Z,17.70
2023-03-03T10:56:07.852Z,18.10
2023-03-03T10:57:07.849Z,18.20
2023-03-03T10:58:07.830Z,17.80
2023-03-03T10:59:07.827Z,17.70
2023-03-03T11:00:07.806Z,17.90
2023-03-03T11:01:07.893Z,18.70
2023-03-03T11:02:07.781Z,18.30
2023-03-03T11:03:07.768Z,18.70
2023-03-03T11:04:07.812Z,17.90
2023-03-03T11:05:07.760Z,18.30
2023-03-03T11:06:07.765Z,17.60
2023-03-03T11:07:07.734Z,19.20
2023-03-03T11:08:07.710Z,18.30
2023-03-03T11:09:07.771Z,19.00
2023-03-03T11:10:07.730Z,18.90
2023-03-03T11:11:07.680Z,17.70
2023-03-03T11:12:07.665Z,18.30
2023-03-03T11:13:07.653Z,18.30
2023-03-03T11:14:07.672Z,19.40
2023-03-03T11:15:07.633Z,19.00
2023-03-03T11:16:07.623Z,18.60
2023-03-03T11:17:07.618Z,18.90
2023-03-03T11:18:07.603Z,19.50
2023-03-03T11:19:07.607Z,20.10
2023-03-03T11:20:07.583Z,18.30
2023-03-03T11:21:07.568Z,19.50
2023-03-03T11:22:07.580Z,19.10
2023-03-03T11:23:07.539Z,18.40
2023-03-03T11:24:07.553Z,18.50
2023-03-03T11:25:07.527Z,18.90
2023-03-03T11:26:07.549Z,19.70
2023-03-03T11:27:07.493Z,26.20
2023-03-03T11:28:07.494Z,21.60
2023-03-03T11:29:07.526Z,21.90
2023-03-03T11:30:07.482Z,21.70
2023-03-03T11:31:07.473Z,21.00
2023-03-03T11:32:07.488Z,20.40
2023-03-03T11:33:07.435Z,20.60
2023-03-03T11:34:07.458Z,19.60
2023-03-03T11:35:07.402Z,18.70
2023-03-03T11:36:07.399Z,20.00
2023-03-03T11:37:07.381Z,19.90
2023-03-03T11:38:07.422Z,21.20
2023-03-03T11:39:07.384Z,21.60
2023-03-03T11:40:07.351Z,22.10
2023-03-03T11:41:07.336Z,22.40
2023-03-03T11:42:07.336Z,23.60
2023-03-03T11:43:07.313Z,22.80
2023-03-03T11:44:07.329Z,22.00
2023-03-03T11:45:07.290Z,23.00
2023-03-03T11:46:07.345Z,22.70
2023-03-03T11:47:07.273Z,22.30
2023-03-03T11:48:07.268Z,21.90
2023-03-03T11:49:07.269Z,21.70
2023-03-03T11:50:07.277Z,23.20
2023-03-03T11:51:07.221Z,22.10
2023-03-03T11:52:07.231Z,22.60
2023-03-03T11:53:07.210Z,22.30
2023-03-03T11:54:07.222Z,23.20
2023-03-03T11:55:07.187Z,23.10
2023-03-03T11:56:07.171Z,21.50
2023-03-03T11:57:07.157Z,22.30
2023-03-03T11:58:07.170Z,21.90
2023-03-03T11:59:07.155Z,21.50
2023-03-03T12:00:07.127Z,22.10
2023-03-03T12:01:07.136Z,22.10
2023-03-03T12:02:07.130Z,21.10
2023-03-03T12:03:07.090Z,22.00
2023-03-03T12:04:07.104Z,21.70
2023-03-03T12:05:07.076Z,21.30
2023-03-03T12:06:07.157Z,21.20
2023-03-03T12:07:18.566Z,25.10
2023-03-03T12:08:07.040Z,23.60
2023-03-03T12:09:07.048Z,24.10
2023-03-03T12:10:07.022Z,23.40
2023-03-03T12:11:07.001Z,24.10
2023-03-03T12:12:07.001Z,28.70
2023-03-03T12:13:06.969Z,21.00
2023-03-03T12:14:06.989Z,20.20
2023-03-03T12:15:06.949Z,21.00
2023-03-03T12:16:06.995Z,21.00
2023-03-03T12:17:06.935Z,21.80
2023-03-03T12:18:06.920Z,21.90
2023-03-03T12:19:06.970Z,21.90
2023-03-03T12:20:06.926Z,21.60
2023-03-03T12:21:06.907Z,20.60
2023-03-03T12:22:06.902Z,21.90
2023-03-03T12:23:07.536Z,22.70
2023-03-03T12:24:06.914Z,34.90
2023-03-03T12:25:06.917Z,22.40
2023-03-03T12:26:06.907Z,21.60
2023-03-03T12:27:06.898Z,21.90
2023-03-03T12:28:06.841Z,22.50
2023-03-03T12:29:06.873Z,23.30
2023-03-03T12:30:06.803Z,23.70
2023-03-03T12:31:06.915Z,25.00
2023-03-03T12:32:06.811Z,23.20
2023-03-03T12:33:06.830Z,24.80
2023-03-03T12:34:06.794Z,24.30
2023-03-03T12:35:06.767Z,24.00
2023-03-03T12:36:06.739Z,24.50
2023-03-03T12:37:06.750Z,25.10
2023-03-03T12:38:06.716Z,24.50
2023-03-03T12:39:06.739Z,23.80
2023-03-03T12:40:06.705Z,23.20
2023-03-03T12:41:06.687Z,24.80
2023-03-03T12:42:06.685Z,24.00
2023-03-03T12:43:06.690Z,23.50
2023-03-03T12:44:06.684Z,23.10
2023-03-03T12:45:06.644Z,24.20
2023-03-03T12:46:06.667Z,24.20
2023-03-03T12:47:06.686Z,24.60
2023-03-03T12:48:06.613Z,23.00
2023-03-03T12:49:06.614Z,23.80
2023-03-03T12:50:07.763Z,23.60
2023-03-03T12:51:06.580Z,23.40
2023-03-03T12:52:06.582Z,24.60